Terminal Aerodrome Forecast
Issued by NWS Mt. Holly, NJ

Home | Current Version | Previous Version | Text Only | Print | Product List | Glossary On
Versions: 1 2 3 4 5 6 7 8 9 10 11 12 13 14 15 16 17 18 19 20 21
646
FTUS41 KPHI 262321
TAFACY
TAF
KACY 262321Z 2700/2724 VRB03KT P6SM SCT040
     FM270800 VRB03KT P6SM BKN035
      TEMPO 2708/2712 3SM BR
     FM271500 18008KT P6SM BKN035
     FM271900 17008KT P6SM SCT045=

USA.gov is the U.S. government's official web portal to all federal, state and local government web resources and services.